Time;durP1;ratioP1;P1;durP2;ratioP2;P2;SDS_P1;SDS_P2;PMS_P1;PMS_P2;Temp;Humidity;BMP_temperature;BMP_pressure;BME280_temperature;BME280_humidity;BME280_pressure;Samples;Min_cycle;Max_cycle;Signal;HPM_P1;HPM_P2
2023/08/11 00:01:56;;;;;;;4.30;1.60;;;;;;;27.95;39.74;96850.78;5020064;28;20033;-29
2023/08/11 00:04:22;;;;;;;4.25;1.70;;;;;;;27.96;40.26;96844.69;5020693;28;20109;-29
2023/08/11 00:06:48;;;;;;;5.70;1.83;;;;;;;27.72;40.11;96850.41;5016356;28;20021;-29
2023/08/11 00:09:15;;;;;;;2.58;1.55;;;;;;;27.65;40.80;96845.47;5024068;28;20096;-28
2023/08/11 00:11:41;;;;;;;3.75;2.03;;;;;;;27.78;40.29;96837.16;5014571;28;20026;-29
2023/08/11 00:14:06;;;;;;;3.83;1.67;;;;;;;28.02;40.18;96839.03;5020476;28;20489;-29
2023/08/11 00:16:32;;;;;;;6.70;1.58;;;;;;;27.77;39.88;96844.00;5020654;28;20039;-29
2023/08/11 00:18:57;;;;;;;5.20;1.60;;;;;;;27.83;39.54;96831.47;5023694;28;20041;-28
2023/08/11 00:21:23;;;;;;;3.22;1.70;;;;;;;27.78;40.31;96834.38;5018230;28;20026;-29
2023/08/11 00:23:49;;;;;;;3.85;1.48;;;;;;;27.80;40.00;96840.91;5020289;28;20022;-28
2023/08/11 00:26:14;;;;;;;5.65;1.60;;;;;;;27.66;40.27;96836.59;5020403;28;20493;-29
2023/08/11 00:28:40;;;;;;;2.75;1.40;;;;;;;27.73;39.96;96846.34;5020339;28;20484;-29
2023/08/11 00:31:06;;;;;;;2.25;1.30;;;;;;;27.83;39.62;96844.66;5021125;28;20017;-28
2023/08/11 00:33:31;;;;;;;5.28;2.13;;;;;;;27.81;40.05;96844.47;5020460;28;20022;-28
2023/08/11 00:35:57;;;;;;;3.72;1.70;;;;;;;27.70;40.62;96842.59;5020822;28;20067;-29
2023/08/11 00:38:23;;;;;;;4.03;1.45;;;;;;;27.89;40.15;96843.28;5020200;28;20018;-28
2023/08/11 00:40:49;;;;;;;5.82;1.50;;;;;;;28.07;39.28;96841.69;5018651;28;20473;-28
2023/08/11 00:43:14;;;;;;;2.65;1.55;;;;;;;28.04;39.44;96842.03;5015237;28;20064;-30
2023/08/11 00:45:45;;;;;;;4.68;1.70;;;;;;;28.17;39.72;96842.06;5026078;28;20478;-29
2023/08/11 00:48:10;;;;;;;2.92;1.55;;;;;;;28.05;40.19;96837.97;5020194;28;20535;-29
2023/08/11 00:50:36;;;;;;;5.93;1.65;;;;;;;27.96;40.13;96843.94;5020573;28;20029;-29
2023/08/11 00:53:02;;;;;;;2.53;1.52;;;;;;;28.04;40.27;96836.47;5020200;28;20026;-29
2023/08/11 00:55:29;;;;;;;4.55;2.38;;;;;;;28.09;40.06;96841.16;5022246;28;20156;-29
2023/08/11 00:57:54;;;;;;;3.45;1.42;;;;;;;28.13;39.50;96844.41;5018604;28;20033;-28
2023/08/11 01:00:21;;;;;;;2.28;1.48;;;;;;;28.13;40.09;96836.78;5020087;28;20026;-29
2023/08/11 01:02:46;;;;;;;3.50;1.63;;;;;;;28.07;39.89;96836.13;5018776;28;20057;-31
2023/08/11 01:05:14;;;;;;;4.05;1.92;;;;;;;28.04;39.70;96837.22;5019901;28;20068;-30
2023/08/11 01:07:52;;;;;;;3.42;1.40;;;;;;;27.97;39.91;96835.03;5016010;28;20508;-29
2023/08/11 01:10:49;;;;;;;5.63;2.13;;;;;;;27.94;39.92;96833.34;5023355;28;20032;-28
2023/08/11 01:13:23;;;;;;;4.90;1.85;;;;;;;27.67;40.43;96840.13;5019839;28;20385;-29
2023/08/11 01:15:58;;;;;;;5.65;1.77;;;;;;;27.82;39.83;96837.56;5020057;28;20029;-28
2023/08/11 01:18:24;;;;;;;2.97;1.50;;;;;;;27.72;39.96;96842.06;5019882;28;20542;-29
2023/08/11 01:20:54;;;;;;;2.97;1.40;;;;;;;27.80;40.56;96849.28;5014007;28;20041;-29
2023/08/11 01:23:21;;;;;;;5.13;1.73;;;;;;;27.89;39.95;96845.34;5020139;28;20014;-29
2023/08/11 01:25:48;;;;;;;3.92;1.98;;;;;;;27.86;39.71;96849.19;5020015;28;20056;-28
2023/08/11 01:28:14;;;;;;;5.45;1.63;;;;;;;27.63;40.40;96856.41;5023357;28;20025;-29
2023/08/11 01:30:39;;;;;;;5.03;2.08;;;;;;;27.73;40.14;96847.09;5023611;28;20379;-28
2023/08/11 01:33:05;;;;;;;4.57;2.00;;;;;;;27.74;40.69;96851.41;5020018;28;20032;-28
2023/08/11 01:35:30;;;;;;;2.75;1.50;;;;;;;27.92;40.16;96852.63;5020446;28;20101;-30
2023/08/11 01:37:56;;;;;;;6.97;2.00;;;;;;;27.87;40.22;96845.09;5024299;28;20087;-29
2023/08/11 01:40:22;;;;;;;3.70;1.33;;;;;;;27.87;39.85;96843.06;5023083;28;20021;-29
2023/08/11 01:42:47;;;;;;;5.03;1.67;;;;;;;27.74;40.04;96842.28;5023502;28;20030;-29
2023/08/11 01:45:15;;;;;;;5.72;1.83;;;;;;;27.73;40.32;96846.34;5023980;28;20030;-28
2023/08/11 01:47:45;;;;;;;3.17;1.50;;;;;;;27.89;39.94;96848.13;5029457;28;20025;-30
2023/08/11 01:50:13;;;;;;;4.82;1.63;;;;;;;27.89;40.09;96843.28;5023379;28;20049;-28
2023/08/11 01:52:42;;;;;;;3.15;1.73;;;;;;;27.87;40.24;96834.72;5023326;28;20025;-29
2023/08/11 01:55:10;;;;;;;3.72;1.70;;;;;;;27.77;40.18;96832.88;5022925;28;20108;-29
2023/08/11 01:57:38;;;;;;;4.78;1.50;;;;;;;27.81;39.99;96830.53;5025847;28;20049;-28
2023/08/11 02:00:07;;;;;;;4.45;1.70;;;;;;;27.84;40.19;96830.19;5020333;28;20030;-29
2023/08/11 02:02:33;;;;;;;2.55;1.80;;;;;;;27.71;40.26;96830.16;5021661;28;20393;-29
2023/08/11 02:04:58;;;;;;;4.30;1.58;;;;;;;27.74;40.39;96833.94;5023089;28;20021;-28
2023/08/11 02:07:24;;;;;;;4.85;1.70;;;;;;;27.77;40.64;96825.25;5022408;28;20481;-28
2023/08/11 02:09:54;;;;;;;4.45;1.75;;;;;;;27.73;40.60;96830.38;5025577;28;20432;-28
2023/08/11 02:12:20;;;;;;;2.08;1.67;;;;;;;27.76;40.23;96825.78;5026814;28;20014;-29
2023/08/11 02:14:45;;;;;;;4.30;2.10;;;;;;;27.69;40.65;96826.44;5023901;28;20118;-28
2023/08/11 02:17:10;;;;;;;3.00;1.40;;;;;;;27.70;40.41;96823.09;5028408;28;20029;-30
2023/08/11 02:19:36;;;;;;;2.22;1.52;;;;;;;27.64;41.33;96818.91;5022853;28;20029;-29
2023/08/11 02:22:01;;;;;;;3.30;1.65;;;;;;;27.81;40.23;96819.38;5023351;28;20036;-28
2023/08/11 02:24:27;;;;;;;2.47;1.60;;;;;;;27.83;40.32;96816.78;5022503;28;20028;-30
2023/08/11 02:26:52;;;;;;;2.97;1.65;;;;;;;27.92;40.31;96816.41;5029707;28;20025;-30
2023/08/11 02:29:17;;;;;;;3.00;1.52;;;;;;;27.90;40.80;96818.97;5026762;28;20022;-29
2023/08/11 02:31:43;;;;;;;3.67;1.55;;;;;;;27.72;40.68;96812.16;5026098;28;20021;-29
2023/08/11 02:34:09;;;;;;;3.22;1.63;;;;;;;27.77;40.33;96807.78;5024672;28;20017;-30
2023/08/11 02:36:36;;;;;;;6.72;1.60;;;;;;;27.82;40.18;96802.09;5020674;28;20508;-29
2023/08/11 02:39:05;;;;;;;5.03;1.60;;;;;;;27.87;39.67;96806.09;5023132;28;20369;-31
2023/08/11 02:41:31;;;;;;;6.40;1.48;;;;;;;27.79;40.13;96799.66;5025389;28;20457;-29
2023/08/11 02:43:57;;;;;;;4.55;1.50;;;;;;;27.88;39.85;96802.78;5025615;28;20358;-29
2023/08/11 02:46:23;;;;;;;3.70;2.10;;;;;;;27.94;39.63;96799.91;5016639;28;20101;-30
2023/08/11 02:48:49;;;;;;;2.25;1.38;;;;;;;27.70;40.24;96802.81;5020408;28;20053;-28
2023/08/11 02:51:14;;;;;;;3.20;1.50;;;;;;;27.82;39.89;96801.34;5021393;28;20393;-28
2023/08/11 02:53:40;;;;;;;3.75;1.80;;;;;;;27.90;39.40;96796.66;5018874;28;20472;-30
2023/08/11 02:56:07;;;;;;;2.38;1.52;;;;;;;27.75;40.04;96799.94;5025386;28;20033;-29
2023/08/11 02:58:33;;;;;;;3.38;1.33;;;;;;;27.87;39.79;96795.69;5022225;28;20032;-28
2023/08/11 03:00:59;;;;;;;3.33;1.60;;;;;;;27.86;39.61;96796.22;5021722;28;20080;-28
2023/08/11 03:03:25;;;;;;;4.00;1.48;;;;;;;27.83;39.74;96794.50;5021857;28;20021;-28
2023/08/11 03:05:51;;;;;;;3.92;1.70;;;;;;;27.85;40.23;96791.94;5015126;28;20024;-28
2023/08/11 03:08:16;;;;;;;4.47;1.67;;;;;;;27.80;40.00;96795.56;5022314;28;20454;-30
2023/08/11 03:10:42;;;;;;;5.53;1.73;;;;;;;27.82;40.13;96804.13;5021562;28;20420;-29
2023/08/11 03:13:07;;;;;;;6.22;1.88;;;;;;;27.80;40.62;96801.16;5021722;28;20026;-29
2023/08/11 03:15:33;;;;;;;5.50;1.60;;;;;;;27.74;40.93;96801.22;5021664;28;20485;-29
2023/08/11 03:17:59;;;;;;;2.88;1.40;;;;;;;27.74;40.86;96803.28;5021480;28;20053;-28
2023/08/11 03:20:25;;;;;;;5.13;2.00;;;;;;;27.64;40.95;96805.72;5021597;28;20045;-29
2023/08/11 03:22:51;;;;;;;4.22;1.95;;;;;;;27.40;40.41;96812.16;5021791;28;20454;-28
2023/08/11 03:25:16;;;;;;;1.83;1.30;;;;;;;27.35;40.90;96809.44;5022102;28;20531;-28
2023/08/11 03:27:42;;;;;;;6.90;1.77;;;;;;;27.45;40.35;96811.28;5013094;28;20378;-29
2023/08/11 03:30:11;;;;;;;4.93;1.73;;;;;;;27.49;40.32;96811.75;5028580;28;20017;-29
2023/08/11 03:32:40;;;;;;;5.28;1.80;;;;;;;27.44;40.51;96809.81;5020397;28;20071;-28
2023/08/11 03:35:06;;;;;;;5.47;1.77;;;;;;;27.48;40.90;96810.25;5016507;28;20028;-28
2023/08/11 03:37:33;;;;;;;4.10;1.77;;;;;;;27.61;40.62;96812.34;5019924;28;20024;-29
2023/08/11 03:39:59;;;;;;;2.40;1.67;;;;;;;27.61;40.76;96822.75;5028771;28;20030;-30
2023/08/11 03:42:24;;;;;;;5.38;2.05;;;;;;;27.68;41.07;96816.56;5014204;28;20025;-28
2023/08/11 03:44:51;;;;;;;3.38;1.70;;;;;;;27.79;40.60;96819.16;5018997;28;20025;-29
2023/08/11 03:47:17;;;;;;;4.63;1.98;;;;;;;27.72;41.07;96819.75;5022280;28;20025;-29
2023/08/11 03:49:43;;;;;;;3.97;1.75;;;;;;;27.56;41.35;96815.25;5025395;28;20084;-30
2023/08/11 03:52:08;;;;;;;4.07;1.63;;;;;;;27.52;41.15;96821.09;5016906;28;20459;-29
2023/08/11 03:54:34;;;;;;;3.78;1.83;;;;;;;27.57;40.73;96817.47;5017315;28;20072;-29
2023/08/11 03:57:00;;;;;;;6.63;1.95;;;;;;;27.40;41.42;96822.53;5018975;28;20054;-28
2023/08/11 03:59:26;;;;;;;6.13;2.10;;;;;;;27.52;41.01;96827.41;5022205;28;20033;-28
2023/08/11 04:01:52;;;;;;;4.07;1.80;;;;;;;27.59;40.60;96833.66;5024006;28;20068;-29
2023/08/11 04:04:18;;;;;;;2.20;1.55;;;;;;;27.37;40.81;96834.72;5016721;28;20470;-30
2023/08/11 04:06:44;;;;;;;3.17;1.98;;;;;;;27.57;40.88;96831.41;5014297;28;20029;-29
2023/08/11 04:09:10;;;;;;;2.92;1.55;;;;;;;27.59;40.81;96837.19;5017942;28;20207;-29
2023/08/11 04:11:35;;;;;;;5.97;1.98;;;;;;;27.51;41.16;96834.25;5016109;28;20528;-28
2023/08/11 04:14:01;;;;;;;5.50;1.73;;;;;;;27.68;40.64;96830.50;5023971;28;20032;-28
2023/08/11 04:16:28;;;;;;;2.38;1.67;;;;;;;27.60;40.03;96837.94;5017191;28;20108;-28
2023/08/11 04:18:53;;;;;;;5.03;1.65;;;;;;;27.53;40.17;96840.06;5020336;28;20025;-29
2023/08/11 04:21:19;;;;;;;3.78;1.70;;;;;;;27.64;39.91;96841.19;5013666;28;20025;-30
2023/08/11 04:23:44;;;;;;;4.50;1.67;;;;;;;27.57;40.14;96850.91;5021423;28;20026;-29
2023/08/11 04:26:10;;;;;;;4.22;1.83;;;;;;;27.64;40.07;96855.13;5020849;28;20091;-28
2023/08/11 04:28:38;;;;;;;3.45;1.67;;;;;;;27.66;39.90;96858.13;5019518;28;20087;-28
2023/08/11 04:31:06;;;;;;;3.55;1.58;;;;;;;27.60;40.03;96863.03;5022150;28;20096;-28
2023/08/11 04:33:32;;;;;;;6.75;1.90;;;;;;;27.70;39.87;96869.69;5018687;28;20389;-28
2023/08/11 04:35:58;;;;;;;4.32;1.98;;;;;;;27.62;40.50;96874.41;5020516;28;20027;-28
2023/08/11 04:38:23;;;;;;;4.25;1.80;;;;;;;27.64;39.87;96875.38;5020649;28;20029;-28
2023/08/11 04:40:50;;;;;;;3.47;1.95;;;;;;;27.59;40.46;96872.66;5020192;28;20018;-29
2023/08/11 04:43:16;;;;;;;8.85;2.20;;;;;;;27.76;39.93;96867.59;5022870;28;20033;-29
2023/08/11 04:45:41;;;;;;;8.13;1.92;;;;;;;27.59;40.08;96870.63;5026078;28;20080;-28
2023/08/11 04:48:07;;;;;;;7.90;1.83;;;;;;;27.65;40.17;96868.53;5021036;28;20466;-28
2023/08/11 04:50:32;;;;;;;2.63;1.60;;;;;;;27.70;40.20;96869.69;5027694;28;20032;-28
2023/08/11 04:52:58;;;;;;;4.65;1.75;;;;;;;27.62;40.17;96868.81;5020802;28;20037;-30
2023/08/11 04:55:23;;;;;;;3.97;1.77;;;;;;;27.47;40.69;96875.59;5020929;28;20034;-29
2023/08/11 04:57:49;;;;;;;3.83;1.67;;;;;;;27.71;40.17;96874.00;5017362;28;20033;-28
2023/08/11 05:00:16;;;;;;;3.95;1.80;;;;;;;27.47;40.90;96878.38;5022899;28;20076;-28
2023/08/11 05:02:43;;;;;;;3.40;2.03;;;;;;;27.61;40.31;96870.09;5022756;28;20060;-29
2023/08/11 05:05:09;;;;;;;4.03;1.70;;;;;;;27.66;40.38;96874.84;5023074;28;20036;-28
2023/08/11 05:07:34;;;;;;;6.95;1.90;;;;;;;27.67;39.86;96874.31;5021363;28;20474;-29
2023/08/11 05:10:00;;;;;;;5.93;1.90;;;;;;;27.69;39.96;96871.00;5018509;28;20027;-29
2023/08/11 05:12:25;;;;;;;4.45;1.80;;;;;;;27.65;40.01;96876.13;5027390;28;20069;-28
2023/08/11 05:14:51;;;;;;;4.35;1.90;;;;;;;27.68;39.85;96866.72;5026279;28;20113;-29
2023/08/11 05:17:16;;;;;;;3.78;1.70;;;;;;;27.62;40.17;96879.97;5029387;28;20014;-28
2023/08/11 05:19:42;;;;;;;2.33;1.50;;;;;;;27.61;40.16;96878.47;5024324;28;20022;-29
2023/08/11 05:22:07;;;;;;;3.80;1.67;;;;;;;27.54;40.54;96875.00;5030962;28;20054;-28
2023/08/11 05:24:32;;;;;;;4.75;1.92;;;;;;;27.80;39.88;96879.19;5024403;28;20022;-29
2023/08/11 05:26:58;;;;;;;3.35;1.55;;;;;;;27.74;40.46;96870.16;5024383;28;20021;-29
2023/08/11 05:29:24;;;;;;;2.72;1.70;;;;;;;27.71;40.63;96871.22;5016999;28;20018;-28
2023/08/11 05:31:49;;;;;;;3.78;1.70;;;;;;;27.78;40.35;96876.19;5030838;28;20018;-29
2023/08/11 05:34:15;;;;;;;6.85;2.20;;;;;;;27.74;40.56;96875.72;5023926;28;20373;-29
2023/08/11 05:36:40;;;;;;;6.22;1.50;;;;;;;27.80;40.36;96879.94;5022507;28;20025;-29
2023/08/11 05:39:08;;;;;;;6.13;1.88;;;;;;;27.56;40.65;96882.09;5017959;28;20428;-29
2023/08/11 05:41:34;;;;;;;2.80;1.85;;;;;;;27.71;40.52;96885.13;5024340;28;20033;-29
2023/08/11 05:43:59;;;;;;;5.40;2.28;;;;;;;27.79;40.62;96900.72;5023666;28;20053;-29
2023/08/11 05:46:25;;;;;;;6.00;1.60;;;;;;;27.57;41.14;96905.91;5025881;28;20119;-30
2023/08/11 05:48:51;;;;;;;3.03;1.45;;;;;;;27.69;41.12;96905.19;5026772;28;20537;-29
2023/08/11 05:51:17;;;;;;;2.80;1.40;;;;;;;27.76;41.35;96901.78;5016578;28;20014;-29
2023/08/11 05:53:42;;;;;;;7.97;2.47;;;;;;;27.61;42.03;96897.97;5019989;28;20025;-29
2023/08/11 05:56:08;;;;;;;2.58;2.00;;;;;;;27.86;41.37;96899.34;5027163;28;20017;-28
2023/08/11 05:58:34;;;;;;;3.40;1.85;;;;;;;27.49;42.39;96906.47;5025567;28;20045;-29
2023/08/11 06:01:01;;;;;;;3.20;1.60;;;;;;;27.21;43.46;96899.75;5026066;28;20036;-28
2023/08/11 06:03:30;;;;;;;6.70;2.15;;;;;;;27.52;43.19;96905.41;5025199;28;20022;-28
2023/08/11 06:06:04;;;;;;;5.20;1.60;;;;;;;27.66;42.88;96909.03;5023324;28;20032;-28
2023/08/11 06:08:30;;;;;;;2.85;1.90;;;;;;;27.80;42.40;96901.47;5022918;28;20045;-30
2023/08/11 06:10:55;;;;;;;6.60;1.95;;;;;;;27.80;42.36;96907.81;5023152;28;20472;-29
2023/08/11 06:13:23;;;;;;;5.75;2.05;;;;;;;27.43;43.43;96908.59;5023035;28;20026;-30
2023/08/11 06:15:49;;;;;;;3.58;1.95;;;;;;;27.54;42.96;96902.84;5023528;28;20091;-28
2023/08/11 06:18:15;;;;;;;7.00;2.05;;;;;;;27.68;43.04;96912.06;5022857;28;20104;-29
2023/08/11 06:20:41;;;;;;;3.55;1.60;;;;;;;27.70;42.82;96909.47;5021419;28;20374;-28
2023/08/11 06:23:07;;;;;;;4.60;1.92;;;;;;;27.69;43.16;96912.81;5023080;28;20017;-29
2023/08/11 06:25:32;;;;;;;5.97;1.85;;;;;;;27.83;42.18;96911.56;5021074;28;20031;-28
2023/08/11 06:27:58;;;;;;;5.28;1.58;;;;;;;27.82;42.45;96915.63;5024728;28;20026;-30
2023/08/11 06:30:23;;;;;;;5.72;2.00;;;;;;;27.97;42.01;96921.47;5021946;28;20029;-28
2023/08/11 06:32:49;;;;;;;8.45;1.70;;;;;;;27.95;42.29;96923.28;5022455;28;20017;-30
2023/08/11 06:35:14;;;;;;;4.05;1.70;;;;;;;27.69;42.49;96918.38;5030122;28;20380;-28
2023/08/11 06:37:40;;;;;;;4.90;2.00;;;;;;;27.94;41.91;96916.97;5015481;28;20028;-30
2023/08/11 06:40:07;;;;;;;5.95;1.70;;;;;;;27.90;42.14;96922.09;5022526;28;20034;-28
2023/08/11 06:42:32;;;;;;;6.47;2.05;;;;;;;28.05;41.79;96924.41;5022416;28;20021;-28
2023/08/11 06:44:58;;;;;;;4.75;1.73;;;;;;;27.86;42.20;96916.81;5015483;28;20076;-29
2023/08/11 06:47:23;;;;;;;3.65;1.63;;;;;;;27.72;42.60;96923.63;5030374;28;20017;-28
2023/08/11 06:49:49;;;;;;;3.55;1.58;;;;;;;27.93;41.66;96921.03;5021916;28;20124;-29
2023/08/11 06:52:14;;;;;;;3.35;1.60;;;;;;;27.85;41.59;96922.94;5022025;28;20164;-28
2023/08/11 06:54:40;;;;;;;4.63;1.42;;;;;;;28.01;41.60;96930.28;5015252;28;20437;-28
2023/08/11 06:57:06;;;;;;;5.45;1.88;;;;;;;27.92;41.96;96927.91;5022426;28;20079;-28
2023/08/11 06:59:32;;;;;;;5.25;1.67;;;;;;;27.95;41.92;96924.03;5022489;28;20029;-28
2023/08/11 07:01:57;;;;;;;3.63;1.80;;;;;;;27.99;41.96;96934.88;5021990;28;20061;-29
2023/08/11 07:04:23;;;;;;;4.57;1.63;;;;;;;27.96;42.11;96933.16;5021493;28;20022;-28
2023/08/11 07:06:48;;;;;;;3.10;1.60;;;;;;;28.03;41.40;96935.31;5025375;28;20474;-29
2023/08/11 07:09:14;;;;;;;3.15;1.80;;;;;;;27.89;42.32;96929.72;5025396;28;20036;-28
2023/08/11 07:11:39;;;;;;;5.47;2.00;;;;;;;28.01;41.75;96938.66;5016544;28;20022;-28
2023/08/11 07:14:05;;;;;;;3.90;1.60;;;;;;;27.94;42.46;96938.53;5025376;28;20029;-28
2023/08/11 07:16:30;;;;;;;7.57;2.35;;;;;;;28.08;41.74;96940.03;5017783;28;20024;-28
2023/08/11 07:18:56;;;;;;;4.70;1.65;;;;;;;28.21;41.30;96940.88;5022111;28;20018;-28
2023/08/11 07:21:22;;;;;;;4.20;1.60;;;;;;;28.10;42.03;96957.00;5021434;28;20384;-28
2023/08/11 07:23:47;;;;;;;5.05;1.85;;;;;;;28.09;41.71;96947.88;5021241;28;20478;-29
2023/08/11 07:26:13;;;;;;;5.03;1.60;;;;;;;28.17;41.81;96948.03;5021893;28;20076;-28
2023/08/11 07:28:40;;;;;;;3.78;1.50;;;;;;;28.27;41.42;96953.97;5021405;28;20040;-30
2023/08/11 07:31:06;;;;;;;1.80;1.40;;;;;;;28.27;41.42;96951.19;5022994;28;20022;-28
2023/08/11 07:33:31;;;;;;;3.47;1.77;;;;;;;28.21;41.38;96957.59;5024752;28;20075;-28
2023/08/11 07:35:57;;;;;;;3.40;1.45;;;;;;;28.30;41.28;96952.91;5023117;28;20030;-29
2023/08/11 07:38:22;;;;;;;3.10;1.60;;;;;;;28.28;41.71;96967.41;5021162;28;20033;-30
2023/08/11 07:40:48;;;;;;;4.93;1.92;;;;;;;28.21;41.82;96965.97;5020653;28;20470;-28
2023/08/11 07:43:14;;;;;;;3.00;1.70;;;;;;;28.26;41.92;96961.59;5016767;28;20465;-28
2023/08/11 07:45:39;;;;;;;7.63;1.73;;;;;;;28.30;41.30;96964.06;5026881;28;20022;-29
2023/08/11 07:48:05;;;;;;;4.03;1.77;;;;;;;28.32;41.42;96961.47;5020342;28;20048;-29
2023/08/11 07:50:31;;;;;;;9.93;1.95;;;;;;;28.42;41.45;96965.38;5028096;28;20493;-30
2023/08/11 07:52:56;;;;;;;3.75;1.75;;;;;;;28.41;41.45;96961.84;5014367;28;20029;-28
2023/08/11 07:55:22;;;;;;;2.72;1.50;;;;;;;28.30;41.47;96958.50;5021054;28;20488;-28
2023/08/11 07:57:47;;;;;;;3.90;1.70;;;;;;;28.29;41.62;96968.16;5025249;28;20021;-28
2023/08/11 08:00:24;;;;;;;5.43;2.20;;;;;;;28.32;41.81;96964.28;5024175;28;20025;-28
2023/08/11 08:02:49;;;;;;;4.63;1.70;;;;;;;28.41;41.64;96969.47;5018182;28;20026;-29
2023/08/11 08:05:15;;;;;;;3.85;1.80;;;;;;;28.33;41.78;96969.31;5024369;28;20029;-28
2023/08/11 08:07:40;;;;;;;4.10;1.90;;;;;;;28.41;41.87;96963.88;5019783;28;20033;-28
2023/08/11 08:10:11;;;;;;;4.75;1.90;;;;;;;28.41;41.84;96975.03;5020692;28;20076;-28
2023/08/11 08:12:37;;;;;;;7.25;1.88;;;;;;;28.46;41.80;96976.97;5014184;28;20026;-28
2023/08/11 08:15:04;;;;;;;5.50;2.00;;;;;;;28.49;41.59;96975.91;5020447;28;20119;-28
2023/08/11 08:17:31;;;;;;;9.02;1.88;;;;;;;28.43;41.61;96973.22;5020635;28;20527;-29
2023/08/11 08:19:57;;;;;;;5.20;1.83;;;;;;;28.47;41.80;96982.00;5020936;28;20037;-29
2023/08/11 08:22:22;;;;;;;3.75;1.98;;;;;;;28.42;41.97;96982.13;5020581;28;20025;-28
2023/08/11 08:24:48;;;;;;;6.00;1.60;;;;;;;28.53;41.81;96973.56;5021132;28;20076;-28
2023/08/11 08:27:15;;;;;;;2.67;1.70;;;;;;;28.44;42.00;96980.28;5026849;28;20117;-28
2023/08/11 08:29:41;;;;;;;6.32;1.75;;;;;;;28.50;41.87;96988.56;5012326;28;20024;-28
2023/08/11 08:32:06;;;;;;;4.18;2.10;;;;;;;28.42;42.17;96988.47;5023098;28;20842;-28
2023/08/11 08:34:31;;;;;;;8.25;2.17;;;;;;;28.44;42.29;96990.69;5019138;28;20446;-28
2023/08/11 08:36:57;;;;;;;7.25;2.65;;;;;;;28.52;42.13;96983.22;5020667;28;20029;-28
2023/08/11 08:39:22;;;;;;;6.32;2.00;;;;;;;28.47;42.28;96981.25;5020395;28;20101;-29
2023/08/11 08:41:50;;;;;;;4.30;1.95;;;;;;;28.55;41.96;96984.94;5025222;28;20036;-29
2023/08/11 08:44:16;;;;;;;6.35;1.75;;;;;;;28.51;42.37;96979.66;5020960;28;20128;-28
2023/08/11 08:46:42;;;;;;;4.00;1.92;;;;;;;28.62;42.12;96980.75;5024749;28;20052;-29
2023/08/11 08:49:19;;;;;;;6.50;2.15;;;;;;;28.45;42.69;96983.81;5024822;28;20042;-28
2023/08/11 08:51:45;;;;;;;3.97;1.80;;;;;;;28.50;42.56;96977.41;5027606;28;20034;-30
2023/08/11 08:54:11;;;;;;;5.07;1.80;;;;;;;28.58;42.25;96975.47;5026900;28;20112;-28
2023/08/11 08:56:40;;;;;;;6.88;1.63;;;;;;;28.62;42.41;96978.72;5027264;28;20116;-29
2023/08/11 08:59:06;;;;;;;5.45;1.75;;;;;;;28.60;42.25;96976.47;5028510;28;20029;-30
2023/08/11 09:01:34;;;;;;;7.18;1.77;;;;;;;28.67;41.95;96975.09;5019094;28;20032;-28
2023/08/11 09:04:00;;;;;;;3.72;1.80;;;;;;;28.70;42.05;96971.19;5022911;28;20026;-28
2023/08/11 09:06:27;;;;;;;3.90;2.05;;;;;;;28.71;42.17;96974.75;5015554;28;20359;-29
2023/08/11 09:08:52;;;;;;;4.60;1.70;;;;;;;28.62;42.79;96973.13;5027360;28;20112;-28
2023/08/11 09:11:19;;;;;;;3.33;2.00;;;;;;;28.67;42.51;96968.75;5020995;28;20480;-28
2023/08/11 09:13:45;;;;;;;7.10;2.80;;;;;;;28.68;42.46;96970.25;5023956;28;20034;-28
2023/08/11 09:16:14;;;;;;;5.43;1.70;;;;;;;28.67;42.34;96975.09;5028699;28;20470;-28
2023/08/11 09:18:40;;;;;;;4.70;1.67;;;;;;;28.67;42.32;96974.34;5025989;28;20022;-30
2023/08/11 09:21:07;;;;;;;3.78;1.65;;;;;;;28.71;42.16;96969.91;5017385;28;20033;-28
2023/08/11 09:23:33;;;;;;;7.97;2.42;;;;;;;28.71;42.21;96975.50;5023921;28;20033;-28
2023/08/11 09:25:59;;;;;;;7.07;2.00;;;;;;;28.74;41.96;96971.66;5023571;28;20040;-28
2023/08/11 09:28:25;;;;;;;11.68;1.92;;;;;;;28.75;42.06;96970.34;5023881;28;20029;-28
2023/08/11 09:30:50;;;;;;;4.22;2.17;;;;;;;28.77;42.00;96976.16;5016239;28;20049;-28
2023/08/11 09:33:17;;;;;;;5.95;2.58;;;;;;;28.72;42.17;96971.44;5024127;28;20485;-28
2023/08/11 09:35:43;;;;;;;10.68;1.90;;;;;;;28.81;41.96;96964.69;5023024;28;20033;-29
2023/08/11 09:38:08;;;;;;;5.93;2.28;;;;;;;28.88;41.69;96967.59;5024371;28;20029;-28
2023/08/11 09:40:34;;;;;;;6.07;1.65;;;;;;;28.75;42.19;96964.78;5022011;28;20018;-30
2023/08/11 09:42:59;;;;;;;5.05;1.88;;;;;;;28.77;41.88;96962.22;5023255;28;20029;-29
2023/08/11 09:45:25;;;;;;;5.10;1.98;;;;;;;28.77;42.06;96955.88;5023400;28;20429;-28
2023/08/11 09:47:51;;;;;;;3.50;1.75;;;;;;;28.81;41.81;96967.47;5016360;28;20481;-30
2023/08/11 09:50:17;;;;;;;2.83;1.88;;;;;;;28.86;41.86;96952.69;5015762;28;20053;-28
2023/08/11 09:52:44;;;;;;;2.53;1.60;;;;;;;28.87;41.71;96959.75;5022780;28;20021;-28
2023/08/11 09:55:12;;;;;;;5.07;1.63;;;;;;;28.94;41.61;96954.28;5023228;28;20030;-28
2023/08/11 09:57:40;;;;;;;2.78;1.83;;;;;;;28.86;41.59;96958.25;5033382;28;20104;-29
2023/08/11 10:00:11;;;;;;;2.92;1.63;;;;;;;28.89;41.55;96951.59;5020351;28;20038;-28
2023/08/11 10:02:43;;;;;;;6.68;2.17;;;;;;;28.94;41.17;96943.09;5023763;28;20390;-28
2023/08/11 10:05:10;;;;;;;7.85;1.80;;;;;;;28.97;41.19;96958.03;5023035;28;20443;-28
2023/08/11 10:07:42;;;;;;;2.53;1.58;;;;;;;28.95;41.25;96947.41;5025089;28;20057;-28
2023/08/11 10:10:17;;;;;;;5.25;2.55;;;;;;;28.93;41.00;96952.78;5026707;28;20068;-28
2023/08/11 10:13:00;;;;;;;4.55;2.08;;;;;;;28.98;40.90;96947.63;5025481;28;20014;-28
2023/08/11 10:15:27;;;;;;;;;;;;;;;28.96;40.82;96950.94;5026781;28;20045;-28
2023/08/11 10:17:53;;;;;;;4.90;1.50;;;;;;;29.00;40.84;96945.06;5025313;28;19913;-28
2023/08/11 10:20:20;;;;;;;3.58;2.00;;;;;;;29.01;40.68;96949.34;5026555;28;20045;-28
2023/08/11 10:22:46;;;;;;;5.35;1.60;;;;;;;29.04;40.47;96940.66;5023669;28;20447;-28
2023/08/11 10:25:12;;;;;;;3.90;2.08;;;;;;;29.09;40.43;96950.19;5026389;28;20014;-29
2023/08/11 10:27:39;;;;;;;4.18;1.70;;;;;;;29.07;40.36;96947.19;5025547;28;20096;-28
2023/08/11 10:30:07;;;;;;;3.25;1.50;;;;;;;29.05;40.12;96947.75;5017681;28;20026;-28
2023/08/11 10:32:33;;;;;;;5.07;2.00;;;;;;;29.05;40.02;96947.75;5027265;28;20029;-28
2023/08/11 10:34:59;;;;;;;5.47;1.85;;;;;;;29.02;39.88;96953.66;5030084;28;20029;-30
2023/08/11 10:37:33;;;;;;;8.05;2.20;;;;;;;29.07;39.99;96945.13;5022320;28;20458;-30
2023/08/11 10:40:08;;;;;;;1.70;1.58;;;;;;;28.98;39.85;96948.38;5015682;28;20506;-28
2023/08/11 10:42:36;;;;;;;3.08;1.90;;;;;;;29.06;39.96;96949.22;5022089;28;20030;-28
2023/08/11 10:45:15;;;;;;;4.00;1.77;;;;;;;28.96;40.38;96942.56;5028477;28;20060;-30
2023/08/11 10:47:50;;;;;;;3.13;1.90;;;;;;;28.93;40.42;96936.03;5014993;28;20026;-30
2023/08/11 10:50:18;;;;;;;3.58;1.85;;;;;;;29.05;40.45;96941.41;5022516;28;20084;-29
2023/08/11 10:52:45;;;;;;;3.90;1.80;;;;;;;29.05;40.59;96938.63;5015550;28;20374;-28
2023/08/11 10:55:10;;;;;;;5.43;1.85;;;;;;;29.05;40.62;96942.16;5020809;28;20029;-29
2023/08/11 10:57:36;;;;;;;4.18;1.92;;;;;;;29.12;40.82;96932.38;5031957;28;20021;-28
2023/08/11 11:00:01;;;;;;;5.78;1.67;;;;;;;29.04;41.08;96931.53;5025510;28;20029;-28
2023/08/11 11:02:29;;;;;;;5.53;1.80;;;;;;;29.12;40.98;96935.91;5024001;28;20060;-30
2023/08/11 11:04:55;;;;;;;4.00;1.90;;;;;;;29.01;40.97;96936.13;5021249;28;20022;-29
2023/08/11 11:07:24;;;;;;;3.88;1.90;;;;;;;29.04;40.91;96939.91;5020916;28;20026;-29
2023/08/11 11:09:51;;;;;;;4.82;1.70;;;;;;;29.07;40.86;96936.75;5024816;28;20097;-28
2023/08/11 11:12:17;;;;;;;5.90;2.00;;;;;;;29.09;40.59;96936.22;5026033;28;20014;-28
2023/08/11 11:14:42;;;;;;;3.70;2.00;;;;;;;29.17;40.54;96940.63;5022875;28;20497;-28
2023/08/11 11:17:08;;;;;;;5.13;1.98;;;;;;;29.05;40.11;96936.56;5024830;28;20031;-29
2023/08/11 11:19:34;;;;;;;6.03;2.03;;;;;;;29.07;40.14;96933.22;5024908;28;20108;-28
2023/08/11 11:22:00;;;;;;;8.52;1.98;;;;;;;29.16;39.97;96930.00;5016932;28;20025;-30
2023/08/11 11:24:25;;;;;;;4.75;2.10;;;;;;;29.11;40.37;96928.81;5018203;28;20029;-28
2023/08/11 11:26:51;;;;;;;4.35;1.88;;;;;;;29.17;40.53;96920.34;5029253;28;20024;-28
2023/08/11 11:29:23;;;;;;;3.33;2.10;;;;;;;29.11;40.83;96922.47;5022035;28;20049;-28
2023/08/11 11:31:48;;;;;;;4.53;1.70;;;;;;;29.12;40.89;96927.53;5021110;28;20017;-28